createdAt,value
2017-08-06T00:00:59.203Z,1012.87
2017-08-06T00:01:54.260Z,1012.85
2017-08-06T00:02:48.431Z,1012.87
2017-08-06T00:03:48.429Z,1012.87
2017-08-06T00:04:43.532Z,1012.84
2017-08-06T00:05:43.592Z,1012.83
2017-08-06T00:06:43.471Z,1012.86
2017-08-06T00:07:49.724Z,1012.90
2017-08-06T00:08:49.535Z,1012.91
2017-08-06T00:09:50.670Z,1012.88
2017-08-06T00:10:44.724Z,1012.94
2017-08-06T00:11:44.654Z,1012.93
2017-08-06T00:12:39.657Z,1012.96
2017-08-06T00:13:34.421Z,1013.00
2017-08-06T00:14:34.939Z,1012.97
2017-08-06T00:15:29.979Z,1012.98
2017-08-06T00:16:24.643Z,1012.93
2017-08-06T00:17:24.559Z,1012.93
2017-08-06T00:18:19.619Z,1012.95
2017-08-06T00:19:14.671Z,1012.95
2017-08-06T00:20:15.785Z,1012.98
2017-08-06T00:21:16.799Z,1012.99
2017-08-06T00:22:11.838Z,1012.99
2017-08-06T00:23:05.943Z,1013.03
2017-08-06T00:24:05.795Z,1013.07
2017-08-06T00:25:06.104Z,1013.04
2017-08-06T00:26:00.704Z,1013.06
2017-08-06T00:26:54.946Z,1013.11
2017-08-06T00:27:55.325Z,1013.12
2017-08-06T00:28:50.117Z,1013.11
2017-08-06T00:29:45.454Z,1013.10
2017-08-06T00:30:46.404Z,1013.10
2017-08-06T00:31:46.011Z,1013.13
2017-08-06T00:32:46.236Z,1013.13
2017-08-06T00:33:41.166Z,1013.14
2017-08-06T00:34:41.191Z,1013.15
2017-08-06T00:35:41.340Z,1013.22
2017-08-06T00:36:35.316Z,1013.20
2017-08-06T00:37:35.680Z,1013.21
2017-08-06T00:38:30.819Z,1013.21
2017-08-06T00:39:30.653Z,1013.23
2017-08-06T00:40:24.680Z,1013.25
2017-08-06T00:41:25.729Z,1013.25
2017-08-06T00:42:26.856Z,1013.26
2017-08-06T00:43:21.813Z,1013.25
2017-08-06T00:44:15.887Z,1013.24
2017-08-06T00:45:15.912Z,1013.30
2017-08-06T00:46:10.942Z,1013.28
2017-08-06T00:47:10.968Z,1013.26
2017-08-06T00:48:04.934Z,1013.27
2017-08-06T00:49:05.107Z,1013.30
2017-08-06T00:50:00.257Z,1013.30
2017-08-06T00:51:00.180Z,1013.29
2017-08-06T00:52:00.069Z,1013.29
2017-08-06T00:53:00.265Z,1013.28
2017-08-06T00:53:54.133Z,1013.32
2017-08-06T00:54:54.307Z,1013.30
2017-08-06T00:55:49.314Z,1013.31
2017-08-06T00:56:44.304Z,1013.36
2017-08-06T00:57:44.336Z,1013.37
2017-08-06T00:58:38.949Z,1013.36
2017-08-06T00:59:34.218Z,1013.35
2017-08-06T01:00:34.144Z,1013.35
2017-08-06T01:01:29.292Z,1013.38
2017-08-06T01:02:24.134Z,1013.36
2017-08-06T01:03:25.467Z,1013.39
2017-08-06T01:04:25.158Z,1013.41
2017-08-06T01:05:25.663Z,1013.38
2017-08-06T01:06:20.454Z,1013.44
2017-08-06T01:07:14.626Z,1013.44
2017-08-06T01:08:14.362Z,1013.47
2017-08-06T01:09:09.608Z,1013.47
2017-08-06T01:10:09.887Z,1013.50
2017-08-06T01:11:03.503Z,1013.48
2017-08-06T01:12:03.437Z,1013.47
2017-08-06T01:12:58.883Z,1013.45
2017-08-06T01:13:53.844Z,1013.48
2017-08-06T01:14:54.036Z,1013.45
2017-08-06T01:15:48.652Z,1013.44
2017-08-06T01:16:43.696Z,1013.50
2017-08-06T01:17:44.883Z,1013.50
2017-08-06T01:18:44.867Z,1013.51
2017-08-06T01:19:45.153Z,1013.53
2017-08-06T01:20:40.038Z,1013.52
2017-08-06T01:21:34.180Z,1013.52
2017-08-06T01:22:34.314Z,1013.49
2017-08-06T01:23:29.208Z,1013.50
2017-08-06T01:24:24.368Z,1013.49
2017-08-06T01:25:19.382Z,1013.50
2017-08-06T01:26:14.344Z,1013.54
2017-08-06T01:27:02.337Z,1013.53
2017-08-06T01:27:56.401Z,1013.51
2017-08-06T01:28:51.511Z,1013.53
2017-08-06T01:29:40.528Z,1013.49
2017-08-06T01:30:40.544Z,1013.53
2017-08-06T01:31:28.604Z,1013.55
2017-08-06T01:32:23.678Z,1013.53
2017-08-06T01:33:11.650Z,1013.55
2017-08-06T01:34:00.712Z,1013.56
2017-08-06T01:34:49.728Z,1013.59
2017-08-06T01:35:43.805Z,1013.60
2017-08-06T01:36:37.886Z,1013.64
2017-08-06T01:37:31.872Z,1013.65
2017-08-06T01:38:20.935Z,1013.64
2017-08-06T01:39:09.727Z,1013.63
2017-08-06T01:39:59.024Z,1013.61
2017-08-06T01:40:47.033Z,1013.62
2017-08-06T01:41:35.811Z,1013.66
2017-08-06T01:42:23.867Z,1013.61
2017-08-06T01:43:23.938Z,1013.64
2017-08-06T01:44:12.718Z,1013.60
2017-08-06T01:45:13.210Z,1013.61
2017-08-06T01:46:01.977Z,1013.65
2017-08-06T01:46:51.214Z,1013.66
2017-08-06T01:47:39.194Z,1013.69
2017-08-06T01:48:32.969Z,1013.68
2017-08-06T01:49:21.186Z,1013.67
2017-08-06T01:50:09.505Z,1013.68
2017-08-06T01:51:03.400Z,1013.67
2017-08-06T01:52:03.224Z,1013.68
2017-08-06T01:53:03.217Z,1013.71
2017-08-06T01:53:58.529Z,1013.70
2017-08-06T01:54:52.605Z,1013.68
2017-08-06T01:55:52.461Z,1013.68
2017-08-06T01:56:47.386Z,1013.70
2017-08-06T01:57:42.317Z,1013.69
2017-08-06T01:58:43.488Z,1013.70
2017-08-06T01:59:43.540Z,1013.71
2017-08-06T02:00:43.649Z,1013.75
2017-08-06T02:01:38.719Z,1013.75
2017-08-06T02:02:33.212Z,1013.76
2017-08-06T02:03:32.856Z,1013.76
2017-08-06T02:04:27.602Z,1013.76
2017-08-06T02:05:28.075Z,1013.76
2017-08-06T02:06:21.562Z,1013.79
2017-08-06T02:07:21.872Z,1013.83
2017-08-06T02:08:16.611Z,1013.83
2017-08-06T02:09:11.916Z,1013.83
2017-08-06T02:10:12.180Z,1013.83
2017-08-06T02:11:06.803Z,1013.83
2017-08-06T02:12:01.977Z,1013.85
2017-08-06T02:13:02.875Z,1013.82
2017-08-06T02:14:03.236Z,1013.85
2017-08-06T02:15:03.134Z,1013.86
2017-08-06T02:15:58.048Z,1013.88
2017-08-06T02:16:57.962Z,1013.85
2017-08-06T02:17:58.210Z,1013.88
2017-08-06T02:18:52.380Z,1013.93
2017-08-06T02:19:52.707Z,1013.92
2017-08-06T02:20:47.098Z,1013.95
2017-08-06T02:21:47.221Z,1013.96
2017-08-06T02:22:41.340Z,1013.97
2017-08-06T02:23:41.502Z,1013.99
2017-08-06T02:24:36.364Z,1013.96
2017-08-06T02:25:31.695Z,1013.98
2017-08-06T02:26:31.768Z,1013.97
2017-08-06T02:27:26.772Z,1013.98
2017-08-06T02:28:21.766Z,1014.00
2017-08-06T02:29:22.696Z,1013.96
2017-08-06T02:30:22.839Z,1013.94
2017-08-06T02:31:22.843Z,1013.96
2017-08-06T02:32:17.913Z,1013.94
2017-08-06T02:33:11.939Z,1013.95
2017-08-06T02:34:12.905Z,1013.93
2017-08-06T02:35:12.974Z,1013.97
2017-08-06T02:36:12.917Z,1013.95
2017-08-06T02:37:08.097Z,1013.96
2017-08-06T02:38:02.135Z,1013.95
2017-08-06T02:39:02.152Z,1013.96
2017-08-06T02:39:57.242Z,1013.99
2017-08-06T02:40:51.778Z,1013.99
2017-08-06T02:41:52.848Z,1013.99
2017-08-06T02:42:54.178Z,1013.95
2017-08-06T02:43:49.232Z,1013.97
2017-08-06T02:44:43.199Z,1014.01
2017-08-06T02:45:43.238Z,1014.02
2017-08-06T02:46:43.298Z,1014.06
2017-08-06T02:47:38.451Z,1014.05
2017-08-06T02:48:32.479Z,1014.08
2017-08-06T02:49:32.420Z,1014.13
2017-08-06T02:50:27.518Z,1014.07
2017-08-06T02:51:22.570Z,1014.09
2017-08-06T02:52:17.552Z,1014.07
2017-08-06T02:53:06.712Z,1014.09
2017-08-06T02:53:54.664Z,1014.11
2017-08-06T02:54:42.721Z,1014.12
2017-08-06T02:55:31.811Z,1014.06
2017-08-06T02:56:19.804Z,1014.06
2017-08-06T02:57:13.899Z,1014.07
2017-08-06T02:58:01.894Z,1014.10
2017-08-06T02:58:49.832Z,1014.08
2017-08-06T02:59:39.028Z,1014.09
2017-08-06T03:00:26.991Z,1014.06
2017-08-06T03:01:15.090Z,1014.09
2017-08-06T03:02:03.125Z,1014.06
2017-08-06T03:02:51.126Z,1014.10
2017-08-06T03:03:45.153Z,1014.11
2017-08-06T03:04:34.161Z,1014.15
2017-08-06T03:05:28.267Z,1014.17
2017-08-06T03:06:23.314Z,1014.14
2017-08-06T03:07:17.261Z,1014.14
2017-08-06T03:08:05.348Z,1014.23
2017-08-06T03:08:53.451Z,1014.22
2017-08-06T03:09:47.464Z,1014.25
2017-08-06T03:10:36.679Z,1014.23
2017-08-06T03:11:24.448Z,1014.27
2017-08-06T03:12:12.562Z,1014.24
2017-08-06T03:13:00.594Z,1014.25
2017-08-06T03:13:49.741Z,1014.24
2017-08-06T03:14:37.642Z,1014.29
2017-08-06T03:15:25.754Z,1014.27
2017-08-06T03:16:13.826Z,1014.28
2017-08-06T03:17:02.756Z,1014.26
2017-08-06T03:17:50.754Z,1014.28
2017-08-06T03:18:38.868Z,1014.30
2017-08-06T03:19:27.921Z,1014.25
2017-08-06T03:20:15.890Z,1014.28
2017-08-06T03:21:03.906Z,1014.29
2017-08-06T03:21:53.040Z,1014.32
2017-08-06T03:22:40.990Z,1014.33
2017-08-06T03:23:30.139Z,1014.30
2017-08-06T03:24:18.364Z,1014.35
2017-08-06T03:25:06.214Z,1014.31
2017-08-06T03:25:55.269Z,1014.31
2017-08-06T03:26:43.279Z,1014.34
2017-08-06T03:27:31.386Z,1014.32
2017-08-06T03:28:20.361Z,1014.32
2017-08-06T03:29:08.403Z,1014.35
2017-08-06T03:29:56.525Z,1014.34
2017-08-06T03:30:44.491Z,1014.38
2017-08-06T03:31:33.609Z,1014.37
2017-08-06T03:32:21.641Z,1014.39
2017-08-06T03:33:09.564Z,1014.36
2017-08-06T03:33:58.705Z,1014.38
2017-08-06T03:34:46.772Z,1014.40
2017-08-06T03:35:35.771Z,1014.44
2017-08-06T03:36:23.839Z,1014.46
2017-08-06T03:37:11.837Z,1014.48
2017-08-06T03:38:00.931Z,1014.46
2017-08-06T03:38:48.875Z,1014.47
2017-08-06T03:39:36.906Z,1014.47
2017-08-06T03:40:26.024Z,1014.46
2017-08-06T03:41:14.050Z,1014.45
2017-08-06T03:42:02.119Z,1014.48
2017-08-06T03:42:51.166Z,1014.46
2017-08-06T03:43:39.237Z,1014.48
2017-08-06T03:44:27.238Z,1014.47
2017-08-06T03:45:16.190Z,1014.49
2017-08-06T03:46:04.318Z,1014.53
2017-08-06T03:46:52.363Z,1014.50
2017-08-06T03:47:41.350Z,1014.50
2017-08-06T03:48:29.485Z,1014.48
2017-08-06T03:49:18.418Z,1014.49
2017-08-06T03:50:06.530Z,1014.48
2017-08-06T03:50:54.540Z,1014.50
2017-08-06T03:51:43.528Z,1014.49
2017-08-06T03:52:31.654Z,1014.48
2017-08-06T03:53:19.625Z,1014.50
2017-08-06T03:54:07.693Z,1014.53
2017-08-06T03:54:56.768Z,1014.54
2017-08-06T03:55:44.757Z,1014.53
2017-08-06T03:56:33.915Z,1014.55
2017-08-06T03:57:21.964Z,1014.57
2017-08-06T03:58:10.852Z,1014.57
2017-08-06T03:58:58.917Z,1014.57
2017-08-06T03:59:46.960Z,1014.57
2017-08-06T04:00:36.026Z,1014.60
2017-08-06T04:01:24.105Z,1014.59
2017-08-06T04:02:12.071Z,1014.64
2017-08-06T04:03:01.161Z,1014.59
2017-08-06T04:03:49.278Z,1014.64
2017-08-06T04:04:37.175Z,1014.61
2017-08-06T04:05:26.221Z,1014.61
2017-08-06T04:06:14.311Z,1014.64
2017-08-06T04:07:03.385Z,1014.60
2017-08-06T04:07:51.362Z,1014.63
2017-08-06T04:08:39.435Z,1014.61
2017-08-06T04:09:28.526Z,1014.64
2017-08-06T04:10:16.465Z,1014.63
2017-08-06T04:11:04.522Z,1014.64
2017-08-06T04:11:53.632Z,1014.62
2017-08-06T04:12:41.625Z,1014.65
2017-08-06T04:13:35.686Z,1014.62
2017-08-06T04:14:24.772Z,1014.65
2017-08-06T04:15:12.697Z,1014.67
2017-08-06T04:16:00.741Z,1014.67
2017-08-06T04:16:48.873Z,1014.68
2017-08-06T04:17:37.948Z,1014.71
2017-08-06T04:18:25.979Z,1014.72
2017-08-06T04:19:15.066Z,1014.75
2017-08-06T04:20:02.969Z,1014.76
2017-08-06T04:20:51.132Z,1014.75
2017-08-06T04:21:39.172Z,1014.78
2017-08-06T04:22:27.132Z,1014.77
2017-08-06T04:23:15.156Z,1014.79
2017-08-06T04:24:03.198Z,1014.79
2017-08-06T04:24:51.343Z,1014.83
2017-08-06T04:25:40.304Z,1014.81
2017-08-06T04:26:28.344Z,1014.83
2017-08-06T04:27:16.332Z,1014.83
2017-08-06T04:28:05.382Z,1014.85
2017-08-06T04:28:53.481Z,1014.83
2017-08-06T04:29:42.615Z,1014.82
2017-08-06T04:30:30.516Z,1014.89
2017-08-06T04:31:18.597Z,1014.90
2017-08-06T04:32:06.665Z,1014.90
2017-08-06T04:32:55.650Z,1014.90
2017-08-06T04:33:43.636Z,1014.89
2017-08-06T04:34:32.727Z,1014.92
2017-08-06T04:35:20.710Z,1014.90
2017-08-06T04:36:08.765Z,1014.89
2017-08-06T04:36:57.920Z,1014.88
2017-08-06T04:37:45.930Z,1014.93
2017-08-06T04:38:35.000Z,1014.94
2017-08-06T04:39:23.042Z,1014.90
2017-08-06T04:40:11.134Z,1014.93
2017-08-06T04:41:00.065Z,1014.91
2017-08-06T04:41:48.129Z,1014.90
2017-08-06T04:42:36.233Z,1014.92
2017-08-06T04:43:25.265Z,1014.90
2017-08-06T04:44:13.276Z,1014.94
2017-08-06T04:45:02.330Z,1014.88
2017-08-06T04:45:50.371Z,1014.90
2017-08-06T04:46:38.373Z,1014.92
2017-08-06T04:47:27.497Z,1014.94
2017-08-06T04:48:15.434Z,1014.95
2017-08-06T04:49:03.580Z,1014.98
2017-08-06T04:49:52.661Z,1014.97
2017-08-06T04:50:40.706Z,1014.95
2017-08-06T04:51:28.675Z,1015.01
2017-08-06T04:52:17.694Z,1015.00
2017-08-06T04:53:05.756Z,1014.94
2017-08-06T04:53:53.785Z,1014.97
2017-08-06T04:54:47.854Z,1014.99
2017-08-06T04:55:41.864Z,1015.00
2017-08-06T04:56:29.909Z,1014.95
2017-08-06T04:57:18.954Z,1014.92
2017-08-06T04:58:06.953Z,1014.92
2017-08-06T04:58:55.031Z,1014.95
2017-08-06T04:59:44.046Z,1014.95
2017-08-06T05:00:32.088Z,1014.95
2017-08-06T05:01:20.164Z,1014.95
2017-08-06T05:02:09.174Z,1014.95
2017-08-06T05:02:57.230Z,1014.97
2017-08-06T05:03:46.217Z,1014.98
2017-08-06T05:04:34.272Z,1014.96
2017-08-06T05:05:23.377Z,1014.97
2017-08-06T05:06:11.358Z,1015.01
2017-08-06T05:07:11.361Z,1015.02
2017-08-06T05:08:06.436Z,1015.08
2017-08-06T05:09:01.482Z,1015.07
2017-08-06T05:09:55.522Z,1015.06
2017-08-06T05:10:56.505Z,1015.10
2017-08-06T05:11:56.577Z,1015.06
2017-08-06T05:12:50.695Z,1015.06
2017-08-06T05:13:39.773Z,1015.09
2017-08-06T05:14:27.763Z,1015.09
2017-08-06T05:15:21.769Z,1015.10
2017-08-06T05:16:21.796Z,1015.12
2017-08-06T05:17:16.902Z,1015.12
2017-08-06T05:18:11.890Z,1015.17
2017-08-06T05:19:06.013Z,1015.17
2017-08-06T05:20:01.012Z,1015.14
2017-08-06T05:20:50.078Z,1015.11
2017-08-06T05:21:38.106Z,1015.14
2017-08-06T05:22:26.192Z,1015.17
2017-08-06T05:23:21.267Z,1015.20
2017-08-06T05:24:15.252Z,1015.18
2017-08-06T05:25:03.335Z,1015.18
2017-08-06T05:25:58.340Z,1015.17
2017-08-06T05:26:58.361Z,1015.21
2017-08-06T05:27:58.381Z,1015.16
2017-08-06T05:28:58.310Z,1015.21
2017-08-06T05:29:58.395Z,1015.23
2017-08-06T05:30:46.493Z,1015.23
2017-08-06T05:31:40.527Z,1015.23
2017-08-06T05:32:41.526Z,1015.27
2017-08-06T05:33:36.538Z,1015.19
2017-08-06T05:34:36.672Z,1015.21
2017-08-06T05:35:42.726Z,1015.21
2017-08-06T05:36:37.766Z,1015.22
2017-08-06T05:37:26.844Z,1015.21
2017-08-06T05:38:21.777Z,1015.25
2017-08-06T05:39:21.896Z,1015.27
2017-08-06T05:40:16.857Z,1015.27
2017-08-06T05:41:12.114Z,1015.24
2017-08-06T05:42:06.028Z,1015.29
2017-08-06T05:43:06.078Z,1015.30
2017-08-06T05:44:00.084Z,1015.39
2017-08-06T05:44:49.028Z,1015.41
2017-08-06T05:45:43.115Z,1015.37
2017-08-06T05:46:38.243Z,1015.38
2017-08-06T05:47:27.259Z,1015.41
2017-08-06T05:48:21.273Z,1015.39
2017-08-06T05:49:21.325Z,1015.45
2017-08-06T05:50:15.381Z,1015.44
2017-08-06T05:51:27.358Z,1015.47
2017-08-06T05:52:22.650Z,1015.46
2017-08-06T05:53:22.503Z,1015.45
2017-08-06T05:54:17.622Z,1015.48
2017-08-06T05:55:12.594Z,1015.49
2017-08-06T05:56:01.657Z,1015.49
2017-08-06T05:56:56.713Z,1015.53
2017-08-06T05:57:51.739Z,1015.58
2017-08-06T05:58:52.739Z,1015.54
2017-08-06T05:59:53.892Z,1015.58
2017-08-06T06:00:47.960Z,1015.56
2017-08-06T06:01:41.860Z,1015.58
2017-08-06T06:02:35.985Z,1015.58
2017-08-06T06:03:24.974Z,1015.61
2017-08-06T06:04:26.154Z,1015.58
2017-08-06T06:05:26.075Z,1015.57
2017-08-06T06:06:21.163Z,1015.60
2017-08-06T06:07:21.163Z,1015.63
2017-08-06T06:08:15.282Z,1015.62
2017-08-06T06:09:16.285Z,1015.61
2017-08-06T06:10:17.287Z,1015.64
2017-08-06T06:11:11.251Z,1015.64
2017-08-06T06:12:00.348Z,1015.65
2017-08-06T06:12:48.447Z,1015.67
2017-08-06T06:13:43.498Z,1015.70
2017-08-06T06:14:43.681Z,1015.72
2017-08-06T06:15:32.563Z,1015.74
2017-08-06T06:16:32.639Z,1015.77
2017-08-06T06:17:27.696Z,1015.75
2017-08-06T06:18:27.761Z,1015.79
2017-08-06T06:19:27.616Z,1015.82
2017-08-06T06:20:27.859Z,1015.81
2017-08-06T06:21:21.935Z,1015.77
2017-08-06T06:22:11.012Z,1015.82
2017-08-06T06:23:00.014Z,1015.83
2017-08-06T06:23:49.020Z,1015.87
2017-08-06T06:24:44.081Z,1015.86
2017-08-06T06:25:38.085Z,1015.82
2017-08-06T06:26:26.239Z,1015.86
2017-08-06T06:27:20.230Z,1015.79
2017-08-06T06:28:26.346Z,1015.83
2017-08-06T06:29:21.344Z,1015.84
2017-08-06T06:30:10.373Z,1015.83
2017-08-06T06:30:59.475Z,1015.78
2017-08-06T06:31:48.540Z,1015.87
2017-08-06T06:32:37.552Z,1015.93
2017-08-06T06:33:32.626Z,1015.95
2017-08-06T06:34:26.714Z,1015.88
2017-08-06T06:35:21.717Z,1015.84
2017-08-06T06:36:15.765Z,1015.92
2017-08-06T06:37:03.844Z,1015.89
2017-08-06T06:37:52.939Z,1016.01
2017-08-06T06:38:58.974Z,1015.94
2017-08-06T06:39:54.100Z,1015.96
2017-08-06T06:40:43.148Z,1015.99
2017-08-06T06:41:43.112Z,1016.08
2017-08-06T06:42:38.146Z,1016.12
2017-08-06T06:43:32.119Z,1016.10
2017-08-06T06:44:27.145Z,1016.06
2017-08-06T06:45:21.342Z,1016.02
2017-08-06T06:46:10.320Z,1016.07
2017-08-06T06:47:04.451Z,1016.05
2017-08-06T06:47:58.488Z,1016.07
2017-08-06T06:48:47.471Z,1016.06
2017-08-06T06:49:36.650Z,1016.09
2017-08-06T06:50:30.561Z,1016.01
2017-08-06T06:51:18.729Z,1016.04
2017-08-06T06:52:07.695Z,1016.06
2017-08-06T06:53:02.762Z,1016.11
2017-08-06T06:53:51.880Z,1016.11
2017-08-06T06:54:57.955Z,1016.02
2017-08-06T06:55:51.938Z,1016.12
2017-08-06T06:56:45.895Z,1016.12
2017-08-06T06:57:47.071Z,1016.15
2017-08-06T06:58:41.031Z,1016.10
2017-08-06T06:59:35.074Z,1016.15
2017-08-06T07:00:24.183Z,1016.16
2017-08-06T07:01:19.140Z,1016.20
2017-08-06T07:02:13.335Z,1016.19
2017-08-06T07:03:01.279Z,1016.21
2017-08-06T07:03:55.455Z,1016.22
2017-08-06T07:04:50.232Z,1016.11
2017-08-06T07:05:45.384Z,1016.18
2017-08-06T07:06:40.189Z,1016.15
2017-08-06T07:07:29.286Z,1016.19
2017-08-06T07:08:23.463Z,1016.15
2017-08-06T07:09:18.567Z,1016.21
2017-08-06T07:10:06.725Z,1016.19
2017-08-06T07:10:55.781Z,1016.20
2017-08-06T07:11:49.559Z,1016.22
2017-08-06T07:12:50.036Z,1016.21
2017-08-06T07:13:44.749Z,1016.15
2017-08-06T07:14:45.727Z,1016.22
2017-08-06T07:15:45.987Z,1016.22
2017-08-06T07:16:40.814Z,1016.23
2017-08-06T07:17:36.197Z,1016.25
2017-08-06T07:18:30.241Z,1016.23
2017-08-06T07:19:19.440Z,1016.25
2017-08-06T07:20:14.286Z,1016.18
2017-08-06T07:21:03.465Z,1016.23
2017-08-06T07:21:58.399Z,1016.22
2017-08-06T07:22:52.609Z,1016.24
2017-08-06T07:23:47.440Z,1016.22
2017-08-06T07:24:41.637Z,1016.22
2017-08-06T07:25:35.742Z,1016.27
2017-08-06T07:26:29.736Z,1016.26
2017-08-06T07:27:30.897Z,1016.30
2017-08-06T07:28:30.796Z,1016.27
2017-08-06T07:29:25.969Z,1016.28
2017-08-06T07:30:14.142Z,1016.27
2017-08-06T07:31:15.109Z,1016.31
2017-08-06T07:32:15.109Z,1016.28
2017-08-06T07:33:04.138Z,1016.30
2017-08-06T07:33:53.033Z,1016.31
2017-08-06T07:34:48.289Z,1016.33
2017-08-06T07:35:49.502Z,1016.30
2017-08-06T07:36:38.340Z,1016.41
2017-08-06T07:37:27.467Z,1016.36
2017-08-06T07:38:21.361Z,1016.35
2017-08-06T07:39:21.605Z,1016.38
2017-08-06T07:40:10.591Z,1016.36
2017-08-06T07:40:59.678Z,1016.36
2017-08-06T07:41:53.794Z,1016.39
2017-08-06T07:42:48.751Z,1016.38
2017-08-06T07:43:42.898Z,1016.36
2017-08-06T07:44:30.958Z,1016.38
2017-08-06T07:45:32.034Z,1016.39
2017-08-06T07:46:32.226Z,1016.41
2017-08-06T07:47:26.152Z,1016.41
2017-08-06T07:48:20.122Z,1016.39
2017-08-06T07:49:14.236Z,1016.43
2017-08-06T07:50:01.841Z,1016.43
2017-08-06T07:50:51.307Z,1016.38
2017-08-06T07:51:40.459Z,1016.41
2017-08-06T07:52:29.496Z,1016.26
2017-08-06T07:53:29.518Z,1016.39
2017-08-06T07:54:29.637Z,1016.50
2017-08-06T07:55:29.602Z,1016.43
2017-08-06T07:56:18.659Z,1016.45
2017-08-06T07:57:07.858Z,1016.50
2017-08-06T07:57:56.780Z,1016.49
2017-08-06T07:58:50.812Z,1016.47
2017-08-06T07:59:45.877Z,1016.43
2017-08-06T08:00:40.000Z,1016.46
2017-08-06T08:01:34.083Z,1016.45
2017-08-06T08:02:23.160Z,1016.48
2017-08-06T08:03:12.215Z,1016.45
2017-08-06T08:04:07.137Z,1016.43
2017-08-06T08:05:01.328Z,1016.39
2017-08-06T08:05:56.406Z,1016.42
2017-08-06T08:06:45.408Z,1016.45
2017-08-06T08:07:33.475Z,1016.52
2017-08-06T08:08:27.616Z,1016.47
2017-08-06T08:09:27.569Z,1016.50
2017-08-06T08:10:22.654Z,1016.53
2017-08-06T08:11:16.758Z,1016.45
2017-08-06T08:12:11.780Z,1016.52
2017-08-06T08:13:06.805Z,1016.53
2017-08-06T08:14:00.873Z,1016.49
2017-08-06T08:14:49.888Z,1016.47
2017-08-06T08:15:44.935Z,1016.50
2017-08-06T08:16:39.049Z,1016.54
2017-08-06T08:17:28.088Z,1016.55
2017-08-06T08:18:22.256Z,1016.59
2017-08-06T08:19:11.242Z,1016.62
2017-08-06T08:20:00.323Z,1016.56
2017-08-06T08:20:54.351Z,1016.56
2017-08-06T08:21:49.397Z,1016.55
2017-08-06T08:22:44.488Z,1016.38
2017-08-06T08:23:38.606Z,1016.52
2017-08-06T08:24:32.677Z,1016.53
2017-08-06T08:25:26.726Z,1016.61
2017-08-06T08:26:14.637Z,1016.58
2017-08-06T08:27:08.734Z,1016.42
2017-08-06T08:28:02.811Z,1016.62
2017-08-06T08:28:56.904Z,1016.84
2017-08-06T08:29:56.938Z,1016.79
2017-08-06T08:30:51.967Z,1016.74
2017-08-06T08:31:41.059Z,1016.65
2017-08-06T08:32:36.184Z,1016.52
2017-08-06T08:33:30.246Z,1016.45
2017-08-06T08:34:24.348Z,1016.64
2017-08-06T08:35:19.243Z,1016.69
2017-08-06T08:36:08.341Z,1016.88
2017-08-06T08:37:03.443Z,1016.78
2017-08-06T08:37:57.487Z,1016.71
2017-08-06T08:38:51.520Z,1016.77
2017-08-06T08:39:40.570Z,1016.97
2017-08-06T08:40:29.705Z,1016.82
2017-08-06T08:41:23.655Z,1016.64
2017-08-06T08:42:11.771Z,1016.60
2017-08-06T08:43:11.799Z,1016.56
2017-08-06T08:44:06.936Z,1016.33
2017-08-06T08:44:54.911Z,1016.71
2017-08-06T08:45:49.986Z,1016.48
2017-08-06T08:46:50.081Z,1016.83
2017-08-06T08:47:45.046Z,1017.02
2017-08-06T08:48:34.224Z,1017.00
2017-08-06T08:49:34.263Z,1016.90
2017-08-06T08:50:28.295Z,1016.93
2017-08-06T08:51:22.402Z,1016.91
2017-08-06T08:52:10.426Z,1016.75
2017-08-06T08:53:04.406Z,1016.82
2017-08-06T08:53:59.622Z,1016.95
2017-08-06T08:54:53.737Z,1016.88
2017-08-06T08:55:42.726Z,1016.56
2017-08-06T08:56:37.673Z,1016.73
2017-08-06T08:57:31.940Z,1016.70
2017-08-06T08:58:26.856Z,1017.05
2017-08-06T08:59:20.934Z,1017.19
2017-08-06T09:00:09.013Z,1017.22
2017-08-06T09:01:09.083Z,1017.16
2017-08-06T09:01:58.104Z,1017.02
2017-08-06T09:02:52.201Z,1016.95
2017-08-06T09:03:52.218Z,1016.63
2017-08-06T09:04:47.251Z,1016.72
2017-08-06T09:05:35.441Z,1016.76
2017-08-06T09:06:23.451Z,1016.81
2017-08-06T09:07:18.479Z,1016.87
2017-08-06T09:08:13.527Z,1017.20
2017-08-06T09:09:08.611Z,1017.15
2017-08-06T09:10:02.776Z,1017.02
2017-08-06T09:10:51.686Z,1016.83
2017-08-06T09:11:39.841Z,1016.95
2017-08-06T09:12:33.776Z,1016.90
2017-08-06T09:13:27.964Z,1016.83
2017-08-06T09:14:23.040Z,1016.86
2017-08-06T09:15:18.066Z,1016.87
2017-08-06T09:16:13.115Z,1016.87
2017-08-06T09:17:08.172Z,1017.04
2017-08-06T09:17:57.161Z,1017.23
2017-08-06T09:18:51.306Z,1017.19
2017-08-06T09:19:52.396Z,1017.20
2017-08-06T09:20:52.389Z,1017.21
2017-08-06T09:21:46.408Z,1017.24
2017-08-06T09:22:40.475Z,1016.99
2017-08-06T09:23:35.582Z,1016.85
2017-08-06T09:24:29.604Z,1016.89
2017-08-06T09:25:18.613Z,1016.86
2017-08-06T09:26:18.667Z,1017.06
2017-08-06T09:27:18.743Z,1017.11
2017-08-06T09:28:12.751Z,1017.12
2017-08-06T09:29:00.902Z,1017.00
2017-08-06T09:30:01.196Z,1016.99
2017-08-06T09:30:50.009Z,1017.01
2017-08-06T09:31:44.170Z,1016.92
2017-08-06T09:32:39.142Z,1016.97
2017-08-06T09:33:33.186Z,1017.02
2017-08-06T09:34:27.187Z,1016.94
2017-08-06T09:35:21.252Z,1016.90
2017-08-06T09:36:22.314Z,1016.84
2017-08-06T09:37:10.418Z,1016.91
2017-08-06T09:38:04.467Z,1016.94
2017-08-06T09:38:58.620Z,1016.91
2017-08-06T09:39:52.578Z,1016.84
2017-08-06T09:40:46.593Z,1016.83
2017-08-06T09:41:35.680Z,1016.88
2017-08-06T09:42:29.718Z,1016.86
2017-08-06T09:43:23.839Z,1016.84
2017-08-06T09:44:17.869Z,1017.01
2017-08-06T09:45:11.835Z,1016.85
2017-08-06T09:46:12.003Z,1016.89
2017-08-06T09:47:06.911Z,1016.96
2017-08-06T09:48:01.082Z,1017.21
2017-08-06T09:49:01.187Z,1017.15
2017-08-06T09:49:56.236Z,1017.02
2017-08-06T09:50:50.238Z,1016.87
2017-08-06T09:51:44.369Z,1016.99
2017-08-06T09:52:39.410Z,1016.93
2017-08-06T09:53:27.422Z,1016.89
2017-08-06T09:54:21.610Z,1016.79
2017-08-06T09:55:15.563Z,1016.77
2017-08-06T09:56:15.578Z,1016.73
2017-08-06T09:57:04.662Z,1016.74
2017-08-06T09:57:53.662Z,1016.78
2017-08-06T09:58:42.834Z,1016.82
2017-08-06T09:59:36.855Z,1016.89
2017-08-06T10:00:25.940Z,1017.05
2017-08-06T10:01:13.890Z,1017.08
2017-08-06T10:02:03.073Z,1017.11
2017-08-06T10:02:57.094Z,1017.01
2017-08-06T10:03:57.164Z,1016.84
2017-08-06T10:04:45.198Z,1016.86
2017-08-06T10:05:51.255Z,1016.78
2017-08-06T10:06:40.385Z,1016.73
2017-08-06T10:07:34.532Z,1016.69
2017-08-06T10:08:35.500Z,1016.70
2017-08-06T10:09:29.525Z,1016.59
2017-08-06T10:10:23.663Z,1016.79
2017-08-06T10:11:18.760Z,1016.88
2017-08-06T10:12:12.820Z,1016.81
2017-08-06T10:13:06.809Z,1016.74
2017-08-06T10:14:00.951Z,1016.72
2017-08-06T10:14:56.005Z,1016.74
2017-08-06T10:15:56.011Z,1016.76
2017-08-06T10:16:50.129Z,1016.73
2017-08-06T10:17:50.144Z,1016.74
2017-08-06T10:18:45.182Z,1016.75
2017-08-06T10:19:33.323Z,1016.77
2017-08-06T10:20:34.305Z,1016.77
2017-08-06T10:21:22.398Z,1016.48
2017-08-06T10:22:11.519Z,1016.54
2017-08-06T10:23:05.515Z,1016.60
2017-08-06T10:23:59.644Z,1016.63
2017-08-06T10:24:53.712Z,1016.62
2017-08-06T10:25:54.671Z,1016.65
2017-08-06T10:26:55.793Z,1016.68
2017-08-06T10:27:44.879Z,1016.74
2017-08-06T10:28:38.852Z,1016.71
2017-08-06T10:29:32.968Z,1016.73
2017-08-06T10:30:26.934Z,1017.04
2017-08-06T10:31:16.114Z,1016.98
2017-08-06T10:32:10.102Z,1016.98
2017-08-06T10:33:04.277Z,1017.02
2017-08-06T10:33:59.241Z,1017.13
2017-08-06T10:34:48.239Z,1017.16
2017-08-06T10:35:48.351Z,1017.18
2017-08-06T10:36:37.390Z,1017.16
2017-08-06T10:37:31.516Z,1017.18
2017-08-06T10:38:31.544Z,1017.10
2017-08-06T10:39:20.542Z,1016.76
2017-08-06T10:40:15.656Z,1016.81
2017-08-06T10:41:03.765Z,1016.79
2017-08-06T10:42:04.684Z,1016.77
2017-08-06T10:42:53.825Z,1016.91
2017-08-06T10:43:48.973Z,1016.67
2017-08-06T10:44:38.026Z,1016.77
2017-08-06T10:45:31.996Z,1016.81
2017-08-06T10:46:32.089Z,1017.08
2017-08-06T10:47:21.151Z,1016.99